Time;durP1;ratioP1;P1;durP2;ratioP2;P2;SDS_P1;SDS_P2;PMS_P1;PMS_P2;Temp;Humidity;BMP_temperature;BMP_pressure;BME280_temperature;BME280_humidity;BME280_pressure;Samples;Min_cycle;Max_cycle;Signal;HPM_P1;HPM_P2
2022/12/19 00:02:01;;;;;;;20.40;10.38;;;-4.00;99.90;;;;;;5042801;28;20030;-38
2022/12/19 00:04:27;;;;;;;30.33;13.80;;;-4.00;99.90;;;;;;5045159;28;20029;-37
2022/12/19 00:06:57;;;;;;;28.73;11.25;;;-4.10;99.90;;;;;;5041531;28;20090;-34
2022/12/19 00:09:22;;;;;;;25.23;12.05;;;-4.20;99.90;;;;;;5047940;28;20033;-39
2022/12/19 00:11:48;;;;;;;24.88;12.10;;;-4.20;99.90;;;;;;5039211;28;20556;-39
2022/12/19 00:14:13;;;;;;;24.08;10.13;;;-4.30;99.90;;;;;;5041367;28;20037;-40
2022/12/19 00:16:39;;;;;;;24.08;13.75;;;-4.20;99.90;;;;;;5047719;28;20036;-41
2022/12/19 00:19:04;;;;;;;15.20;10.63;;;-4.10;99.90;;;;;;5045979;28;20104;-41
2022/12/19 00:21:32;;;;;;;22.42;10.80;;;-3.90;99.90;;;;;;5044142;28;20083;-41
2022/12/19 00:23:57;;;;;;;22.52;11.52;;;-3.90;99.90;;;;;;5045138;28;20382;-42
2022/12/19 00:26:26;;;;;;;24.92;12.25;;;-3.80;99.90;;;;;;5043108;28;20033;-39
2022/12/19 00:28:54;;;;;;;21.80;10.85;;;-3.80;99.90;;;;;;5039629;28;20049;-35
2022/12/19 00:31:21;;;;;;;16.60;11.27;;;-3.80;99.90;;;;;;5044032;28;20452;-41
2022/12/19 00:33:48;;;;;;;17.85;9.50;;;-3.80;99.90;;;;;;5046257;28;20044;-37
2022/12/19 00:36:19;;;;;;;24.60;11.90;;;-3.70;99.90;;;;;;5042286;28;20025;-35
2022/12/19 00:38:45;;;;;;;16.08;10.32;;;-3.70;99.90;;;;;;5035973;28;20347;-36
2022/12/19 00:41:19;;;;;;;17.08;9.65;;;-3.70;99.90;;;;;;5027488;28;20823;-41
2022/12/19 00:43:56;;;;;;;15.45;7.70;;;-3.70;99.90;;;;;;5031837;28;20056;-40
2022/12/19 00:46:22;;;;;;;22.75;10.90;;;-3.80;99.90;;;;;;5043746;28;20103;-42
2022/12/19 00:48:48;;;;;;;18.23;8.82;;;-3.80;99.90;;;;;;5045368;28;20120;-40
2022/12/19 00:51:16;;;;;;;21.73;11.05;;;-3.80;99.90;;;;;;5044100;28;20558;-37
2022/12/19 00:53:43;;;;;;;20.05;9.80;;;-3.70;99.90;;;;;;5047013;28;20403;-42
2022/12/19 00:56:14;;;;;;;18.08;9.02;;;-3.70;99.90;;;;;;5040720;28;20037;-41
2022/12/19 00:58:40;;;;;;;19.00;10.85;;;-3.80;99.90;;;;;;5042641;28;20056;-40
2022/12/19 01:01:27;;;;;;;30.00;13.15;;;-3.70;99.90;;;;;;5044054;28;20075;-40
2022/12/19 01:03:54;;;;;;;21.17;11.10;;;-3.60;99.90;;;;;;5044911;28;20037;-42
2022/12/19 01:06:21;;;;;;;15.40;10.15;;;-3.60;99.90;;;;;;5042481;28;20403;-38
2022/12/19 01:08:46;;;;;;;14.07;8.90;;;-3.60;99.90;;;;;;5044889;28;20107;-40
2022/12/19 01:11:12;;;;;;;21.65;10.10;;;-3.60;99.90;;;;;;5041636;28;20808;-42
2022/12/19 01:13:39;;;;;;;16.02;9.30;;;-3.50;99.90;;;;;;5044588;28;20422;-40
2022/12/19 01:16:10;;;;;;;26.25;11.18;;;-3.60;99.90;;;;;;5044085;28;20549;-42
2022/12/19 01:18:36;;;;;;;24.85;11.88;;;-3.50;99.90;;;;;;5041408;28;20037;-36
2022/12/19 01:21:05;;;;;;;26.92;13.25;;;-3.50;99.90;;;;;;5037699;28;20035;-38
2022/12/19 01:23:31;;;;;;;23.15;11.20;;;-3.50;99.90;;;;;;5040305;28;20070;-36
2022/12/19 01:25:57;;;;;;;23.50;11.05;;;-3.50;99.90;;;;;;5040405;28;20497;-39
2022/12/19 01:28:23;;;;;;;25.42;9.75;;;-3.50;99.90;;;;;;5044362;28;20049;-38
2022/12/19 01:30:49;;;;;;;20.02;11.95;;;-3.60;99.90;;;;;;5043571;28;20036;-41
2022/12/19 01:33:16;;;;;;;19.50;10.50;;;-3.60;99.90;;;;;;5040434;28;20030;-42
2022/12/19 01:35:43;;;;;;;34.75;12.57;;;-3.50;99.90;;;;;;5041333;28;20078;-42
2022/12/19 01:38:14;;;;;;;31.70;12.15;;;-3.60;99.90;;;;;;5041780;28;20557;-36
2022/12/19 01:40:47;;;;;;;21.58;11.30;;;-3.60;99.90;;;;;;5042194;28;20112;-41
2022/12/19 01:43:13;;;;;;;21.42;9.70;;;-3.70;99.90;;;;;;5039783;28;20746;-42
2022/12/19 01:45:39;;;;;;;20.58;10.98;;;-3.70;99.90;;;;;;5038472;28;20041;-39
2022/12/19 01:48:25;;;;;;;18.45;11.73;;;-3.70;99.90;;;;;;5041781;28;20033;-35
2022/12/19 01:51:00;;;;;;;25.27;12.10;;;-3.60;99.90;;;;;;5040453;28;20039;-35
2022/12/19 01:53:30;;;;;;;23.33;12.05;;;-3.50;99.90;;;;;;5048032;28;20040;-40
2022/12/19 01:55:56;;;;;;;18.77;12.13;;;-3.50;99.90;;;;;;5041550;28;20064;-38
2022/12/19 01:58:22;;;;;;;27.02;14.10;;;-3.50;99.90;;;;;;5042271;28;20397;-36
2022/12/19 02:00:48;;;;;;;25.90;10.85;;;-3.60;99.90;;;;;;5044280;28;20039;-39
2022/12/19 02:03:26;;;;;;;29.50;13.82;;;-3.60;99.90;;;;;;5045733;28;20497;-40
2022/12/19 02:05:52;;;;;;;27.43;12.10;;;-3.70;99.90;;;;;;5041021;28;20453;-39
2022/12/19 02:08:19;;;;;;;19.20;9.98;;;-3.80;99.90;;;;;;5042631;28;20029;-39
2022/12/19 02:10:45;;;;;;;25.58;13.45;;;-3.80;99.90;;;;;;5043763;28;20078;-38
2022/12/19 02:13:11;;;;;;;31.50;12.82;;;-3.90;99.90;;;;;;5041648;28;20111;-39
2022/12/19 02:16:34;;;;;;;20.80;11.90;;;-3.90;99.90;;;;;;5041032;28;20064;-35
2022/12/19 02:19:08;;;;;;;10.05;7.88;;;-3.80;99.90;;;;;;4964967;28;20046;-40
2022/12/19 02:22:08;;;;;;;21.42;11.73;;;-3.80;99.90;;;;;;4964554;28;20406;-40
2022/12/19 02:24:52;;;;;;;15.10;8.07;;;-3.70;99.90;;;;;;5019484;28;20045;-39
2022/12/19 02:27:23;;;;;;;9.85;7.63;;;-3.70;99.90;;;;;;5042034;28;20025;-39
2022/12/19 02:30:12;;;;;;;25.30;12.23;;;-3.70;99.90;;;;;;5044149;28;20029;-39
2022/12/19 02:33:01;;;;;;;20.83;10.65;;;-3.70;99.90;;;;;;5044205;28;20033;-40
2022/12/19 02:35:38;;;;;;;25.08;11.80;;;-3.70;99.90;;;;;;5038799;28;20054;-38
2022/12/19 02:38:32;;;;;;;21.98;10.35;;;-3.60;99.90;;;;;;5030298;28;20044;-37
2022/12/19 02:41:02;;;;;;;17.10;9.05;;;-3.70;99.90;;;;;;5025702;28;20939;-34
2022/12/19 02:43:31;;;;;;;20.10;10.80;;;-3.60;99.90;;;;;;5041565;28;20501;-42
2022/12/19 02:45:57;;;;;;;;;;;-3.60;99.90;;;;;;5040090;28;20059;-42
2022/12/19 02:48:23;;;;;;;9.82;7.97;;;-3.60;99.90;;;;;;5043713;28;20356;-39
2022/12/19 02:50:49;;;;;;;24.20;15.07;;;-3.60;99.90;;;;;;5039414;28;20114;-42
2022/12/19 02:53:15;;;;;;;21.55;11.45;;;-3.60;99.90;;;;;;5046445;28;20064;-40
2022/12/19 02:56:12;;;;;;;23.65;10.00;;;-3.60;99.90;;;;;;5039321;28;20036;-40
2022/12/19 02:59:05;;;;;;;20.90;8.48;;;-3.60;99.90;;;;;;5039973;28;20723;-41
2022/12/19 03:01:40;;;;;;;18.83;9.98;;;-3.60;99.90;;;;;;5042690;28;20044;-37
2022/12/19 03:04:20;;;;;;;13.77;7.68;;;-3.60;99.90;;;;;;5039484;28;20382;-35
2022/12/19 03:07:02;;;;;;;21.02;12.23;;;-3.60;99.90;;;;;;5042492;28;20033;-40
2022/12/19 03:10:00;;;;;;;24.70;13.02;;;-3.70;99.90;;;;;;5040319;28;20523;-42
2022/12/19 03:12:33;;;;;;;20.80;11.30;;;-3.60;99.90;;;;;;5040480;28;20174;-41
2022/12/19 03:14:59;;;;;;;24.40;11.00;;;-3.70;99.90;;;;;;5041853;28;20025;-42
2022/12/19 03:17:26;;;;;;;25.17;11.55;;;-3.70;99.90;;;;;;5045529;28;20033;-39
2022/12/19 03:19:52;;;;;;;28.20;13.68;;;-3.70;99.90;;;;;;5041581;28;20037;-40
2022/12/19 03:22:18;;;;;;;38.78;14.65;;;-3.70;99.90;;;;;;5045304;28;20021;-42
2022/12/19 03:24:43;;;;;;;20.02;10.85;;;-3.80;99.90;;;;;;5040328;28;20383;-35
2022/12/19 03:27:17;;;;;;;9.98;5.53;;;-3.70;99.90;;;;;;5041765;28;20134;-42
2022/12/19 03:29:59;;;;;;;36.95;15.73;;;-3.70;99.90;;;;;;5045368;28;20044;-41
2022/12/19 03:32:27;;;;;;;25.73;12.25;;;-3.70;99.90;;;;;;5038719;28;20549;-41
2022/12/19 03:34:59;;;;;;;17.08;10.40;;;-3.80;99.90;;;;;;5041808;28;20075;-42
2022/12/19 03:37:27;;;;;;;29.67;10.75;;;-3.80;99.90;;;;;;5044436;28;20037;-40
2022/12/19 03:39:57;;;;;;;29.90;13.57;;;-3.70;99.90;;;;;;5042891;28;20041;-35
2022/12/19 03:45:11;;;;;;;29.50;12.43;;;-3.70;99.90;;;;;;5042585;28;20840;-38
2022/12/19 03:47:47;;;;;;;24.83;10.10;;;-3.70;99.90;;;;;;5046677;28;20033;-41
2022/12/19 03:50:14;;;;;;;20.23;11.57;;;-3.70;99.90;;;;;;5045376;28;20037;-41
2022/12/19 03:53:05;;;;;;;4.38;4.10;;;-3.70;99.90;;;;;;5043202;28;20140;-39
2022/12/19 03:55:37;;;;;;;13.82;8.13;;;-3.70;99.90;;;;;;5045219;28;20041;-42
2022/12/19 03:58:20;;;;;;;17.90;11.38;;;-3.70;99.90;;;;;;5044319;28;20033;-40
2022/12/19 04:00:48;;;;;;;26.08;13.07;;;-3.70;99.90;;;;;;5045925;28;20118;-36
2022/12/19 04:03:19;;;;;;;23.60;10.47;;;-3.60;99.90;;;;;;5046664;28;20029;-42
2022/12/19 04:05:46;;;;;;;7.40;5.82;;;-3.60;99.90;;;;;;5042424;28;20029;-40
2022/12/19 04:08:12;;;;;;;18.92;8.10;;;-3.60;99.90;;;;;;5044094;28;20112;-41
2022/12/19 04:11:08;;;;;;;22.25;11.80;;;-3.60;99.90;;;;;;5049538;28;20037;-37
2022/12/19 04:13:40;;;;;;;35.00;12.85;;;-3.60;99.90;;;;;;5039970;28;20052;-41
2022/12/19 04:16:23;;;;;;;16.38;10.00;;;-3.60;99.90;;;;;;5044753;28;20049;-34
2022/12/19 04:19:00;;;;;;;20.45;9.52;;;-3.50;99.90;;;;;;5050391;28;20476;-42
2022/12/19 04:21:41;;;;;;;14.75;8.43;;;-3.40;99.90;;;;;;5045179;28;20474;-36
2022/12/19 04:24:11;;;;;;;30.42;12.88;;;-3.40;99.90;;;;;;5046432;28;20021;-36
2022/12/19 04:26:39;;;;;;;24.13;12.05;;;-3.40;99.90;;;;;;5041958;28;20112;-37
2022/12/19 04:29:06;;;;;;;26.75;13.10;;;-3.40;99.90;;;;;;5044484;28;20110;-41
2022/12/19 04:31:32;;;;;;;20.40;9.02;;;-3.40;99.90;;;;;;5042963;28;20030;-42
2022/12/19 04:33:58;;;;;;;18.15;9.98;;;-3.40;99.90;;;;;;5047921;28;20383;-40
2022/12/19 04:36:25;;;;;;;24.35;10.48;;;-3.30;99.90;;;;;;5045631;28;20036;-43
2022/12/19 04:38:51;;;;;;;30.92;11.75;;;-3.40;99.90;;;;;;5044121;28;20032;-41
2022/12/19 04:41:17;;;;;;;19.27;10.90;;;-3.30;99.90;;;;;;5043519;28;20589;-40
2022/12/19 04:43:42;;;;;;;25.42;13.35;;;-3.30;99.90;;;;;;5042817;28;20017;-36
2022/12/19 04:46:08;;;;;;;23.33;9.93;;;-3.30;99.90;;;;;;5044482;28;20029;-40
2022/12/19 04:48:36;;;;;;;31.42;12.00;;;-3.20;99.90;;;;;;5044116;28;21603;-41
2022/12/19 04:51:02;;;;;;;;;;;-3.20;99.90;;;;;;5052174;28;20519;-41
2022/12/19 04:53:28;;;;;;;6.65;5.30;;;-3.20;99.90;;;;;;5042111;28;19993;-42
2022/12/19 04:56:04;;;;;;;20.38;9.63;;;-3.30;99.90;;;;;;5043590;28;20391;-42
2022/12/19 04:58:30;;;;;;;24.38;11.18;;;-3.30;99.90;;;;;;5040611;28;20120;-40
2022/12/19 05:01:03;;;;;;;28.25;12.80;;;-3.20;99.90;;;;;;5039643;28;20120;-40
2022/12/19 05:03:29;;;;;;;25.92;11.10;;;-3.20;99.90;;;;;;5040788;28;20116;-37
2022/12/19 05:06:06;;;;;;;19.70;11.15;;;-3.20;99.90;;;;;;5044095;28;20103;-42
2022/12/19 05:08:32;;;;;;;19.13;9.52;;;-3.20;99.90;;;;;;5041924;28;20033;-40
2022/12/19 05:10:59;;;;;;;23.63;11.80;;;-3.20;99.90;;;;;;5046569;28;20024;-39
2022/12/19 05:13:26;;;;;;;19.75;10.18;;;-3.20;99.90;;;;;;5041936;28;20020;-41
2022/12/19 05:16:06;;;;;;;29.90;10.93;;;-3.20;99.90;;;;;;5041468;28;20371;-42
2022/12/19 05:18:32;;;;;;;30.70;12.43;;;-3.20;99.90;;;;;;5035569;28;20152;-39
2022/12/19 05:20:58;;;;;;;20.85;11.90;;;-3.10;99.90;;;;;;5029188;28;20107;-36
2022/12/19 05:23:24;;;;;;;15.38;9.52;;;-3.20;99.90;;;;;;5028487;28;20108;-40
2022/12/19 05:25:50;;;;;;;27.48;12.00;;;-3.10;99.90;;;;;;5034851;28;20251;-39
2022/12/19 05:28:17;;;;;;;23.80;12.20;;;-3.10;99.90;;;;;;5046693;28;20528;-38
2022/12/19 05:30:43;;;;;;;28.08;12.27;;;-3.10;99.90;;;;;;5042529;28;20036;-37
2022/12/19 05:33:09;;;;;;;24.45;9.90;;;-3.10;99.90;;;;;;5046910;28;20057;-38
2022/12/19 05:35:35;;;;;;;18.50;8.10;;;-3.10;99.90;;;;;;5043613;28;20118;-37
2022/12/19 05:38:01;;;;;;;19.80;11.00;;;-3.10;99.90;;;;;;5044259;28;20095;-40
2022/12/19 05:40:27;;;;;;;11.27;5.57;;;-3.10;99.90;;;;;;5042816;28;20065;-39
2022/12/19 05:42:53;;;;;;;26.55;11.50;;;-3.10;99.90;;;;;;5044351;28;20031;-39
2022/12/19 05:45:19;;;;;;;15.80;9.75;;;-3.10;99.90;;;;;;5041128;28;20035;-38
2022/12/19 05:47:45;;;;;;;21.13;9.73;;;-3.10;99.90;;;;;;5041378;28;20856;-41
2022/12/19 05:50:12;;;;;;;23.25;11.45;;;-3.10;99.90;;;;;;5041300;28;20033;-39
2022/12/19 05:52:38;;;;;;;24.67;11.02;;;-3.10;99.90;;;;;;5044319;28;20448;-37
2022/12/19 05:55:05;;;;;;;11.95;6.25;;;-3.00;99.90;;;;;;5040478;28;20044;-42
2022/12/19 05:57:30;;;;;;;17.00;10.55;;;-3.00;99.90;;;;;;5042103;28;20038;-36
2022/12/19 05:59:56;;;;;;;15.43;9.95;;;-3.00;99.90;;;;;;5041743;28;20031;-41
2022/12/19 06:02:22;;;;;;;19.45;10.63;;;-3.10;99.90;;;;;;5044415;28;21213;-40
2022/12/19 06:04:47;;;;;;;33.15;12.35;;;-3.00;99.90;;;;;;5039742;28;20055;-39
2022/12/19 06:07:13;;;;;;;28.48;13.52;;;-3.10;99.90;;;;;;5044348;28;20024;-41
2022/12/19 06:09:38;;;;;;;26.92;12.80;;;-3.10;99.90;;;;;;5038802;28;20033;-41
2022/12/19 06:12:04;;;;;;;27.65;13.35;;;-3.00;99.90;;;;;;5044585;28;22053;-37
2022/12/19 06:14:30;;;;;;;23.48;9.85;;;-3.00;99.90;;;;;;5042647;28;20021;-42
2022/12/19 06:16:55;;;;;;;26.90;11.00;;;-3.00;99.90;;;;;;5041589;28;20033;-41
2022/12/19 06:19:21;;;;;;;22.52;10.32;;;-2.90;99.90;;;;;;5041712;28;20677;-42
2022/12/19 06:21:47;;;;;;;20.52;12.52;;;-2.90;99.90;;;;;;5042707;28;20033;-39
2022/12/19 06:24:12;;;;;;;21.45;12.27;;;-2.90;99.90;;;;;;5041020;28;20101;-40
2022/12/19 06:26:38;;;;;;;33.92;15.73;;;-2.90;99.90;;;;;;5043252;28;20131;-42
2022/12/19 06:29:04;;;;;;;17.85;10.13;;;-2.90;99.90;;;;;;5039218;28;20844;-38
2022/12/19 06:31:29;;;;;;;28.00;12.52;;;-2.90;99.90;;;;;;5046145;28;20650;-40
2022/12/19 06:33:55;;;;;;;14.38;8.10;;;-2.90;99.90;;;;;;5043184;28;20021;-35
2022/12/19 06:36:23;;;;;;;27.33;11.57;;;-2.90;99.90;;;;;;5041843;28;20032;-39
2022/12/19 06:38:50;;;;;;;25.58;13.20;;;-2.90;99.90;;;;;;5037951;28;20036;-41
2022/12/19 06:44:04;;;;;;;22.00;9.48;;;-2.80;99.90;;;;;;5038989;28;20028;-41
2022/12/19 06:46:30;;;;;;;;;;;-2.80;99.90;;;;;;5038855;28;20115;-36
2022/12/19 06:48:56;;;;;;;24.55;10.75;;;-2.80;99.90;;;;;;5037282;28;20007;-38
2022/12/19 06:51:21;;;;;;;30.73;15.90;;;-2.80;99.90;;;;;;5040978;28;20025;-39
2022/12/19 06:53:47;;;;;;;17.58;9.52;;;-2.80;99.90;;;;;;5039743;28;20043;-40
2022/12/19 06:56:15;;;;;;;12.75;7.90;;;-2.80;99.90;;;;;;5041987;28;20095;-39
2022/12/19 06:58:40;;;;;;;22.92;10.15;;;-2.70;99.90;;;;;;5041773;28;20029;-42
2022/12/19 07:01:06;;;;;;;37.10;14.57;;;-2.70;99.90;;;;;;5038152;28;20112;-36
2022/12/19 07:03:38;;;;;;;35.65;13.15;;;-2.70;99.90;;;;;;5039693;28;20383;-38
2022/12/19 07:06:05;;;;;;;30.13;13.05;;;-2.70;99.90;;;;;;5040844;28;20033;-40
2022/12/19 07:08:31;;;;;;;25.67;12.68;;;-2.80;99.90;;;;;;5041070;28;20559;-39
2022/12/19 07:10:57;;;;;;;25.83;13.30;;;-2.80;99.90;;;;;;5045776;28;20025;-38
2022/12/19 07:13:23;;;;;;;35.80;14.50;;;-2.70;99.90;;;;;;5043965;28;20460;-39
2022/12/19 07:15:51;;;;;;;25.27;13.52;;;-2.80;99.90;;;;;;5039659;28;20111;-40
2022/12/19 07:18:17;;;;;;;22.52;12.90;;;-2.70;99.90;;;;;;5043598;28;20025;-39
2022/12/19 07:20:42;;;;;;;31.88;12.07;;;-2.70;99.90;;;;;;5043108;28;20044;-37
2022/12/19 07:23:13;;;;;;;25.45;12.13;;;-2.70;99.90;;;;;;5045005;28;20725;-41
2022/12/19 07:25:38;;;;;;;33.17;14.52;;;-2.60;99.90;;;;;;5044738;28;20033;-41
2022/12/19 07:28:06;;;;;;;26.35;12.10;;;-2.70;99.90;;;;;;5046955;28;20067;-42
2022/12/19 07:30:31;;;;;;;30.00;11.73;;;-2.60;99.90;;;;;;5044651;28;20079;-37
2022/12/19 07:32:57;;;;;;;16.95;9.98;;;-2.60;99.90;;;;;;5047751;28;20025;-37
2022/12/19 07:35:23;;;;;;;30.48;13.85;;;-2.50;99.90;;;;;;5043628;28;20033;-42
2022/12/19 07:37:49;;;;;;;25.23;12.77;;;-2.50;99.90;;;;;;5040913;28;20044;-41
2022/12/19 07:40:16;;;;;;;26.33;13.18;;;-2.50;99.90;;;;;;5047451;28;20056;-37
2022/12/19 07:42:42;;;;;;;26.08;13.23;;;-2.50;99.90;;;;;;5048608;28;20040;-41
2022/12/19 07:45:08;;;;;;;17.35;11.68;;;-2.40;99.90;;;;;;5046963;28;20021;-36
2022/12/19 07:47:34;;;;;;;28.45;11.55;;;-2.40;99.90;;;;;;5048318;28;20037;-39
2022/12/19 07:50:00;;;;;;;23.23;12.02;;;-2.40;99.90;;;;;;5045337;28;20119;-40
2022/12/19 07:52:26;;;;;;;27.10;12.82;;;-2.40;99.90;;;;;;5045410;28;20025;-39
2022/12/19 07:54:52;;;;;;;22.45;12.05;;;-2.40;99.90;;;;;;5045172;28;20029;-38
2022/12/19 07:57:17;;;;;;;23.02;12.45;;;-2.40;99.90;;;;;;5042682;28;20523;-37
2022/12/19 07:59:43;;;;;;;14.88;9.38;;;-2.30;99.90;;;;;;5043067;28;20025;-36
2022/12/19 08:02:09;;;;;;;31.70;12.38;;;-2.30;99.90;;;;;;5044228;28;20029;-41
2022/12/19 08:04:35;;;;;;;27.65;13.00;;;-2.20;99.90;;;;;;5046693;28;20047;-37
2022/12/19 08:07:01;;;;;;;28.13;14.07;;;-2.10;99.90;;;;;;5045878;28;20056;-41
2022/12/19 08:09:27;;;;;;;23.42;7.95;;;-2.10;99.90;;;;;;5046960;28;20171;-40
2022/12/19 08:11:53;;;;;;;32.45;13.63;;;-2.10;99.90;;;;;;5043465;28;20028;-42
2022/12/19 08:14:19;;;;;;;21.58;12.80;;;-2.00;99.90;;;;;;5044744;28;20032;-42
2022/12/19 08:16:45;;;;;;;27.50;9.93;;;-2.00;99.90;;;;;;5039969;28;20094;-36
2022/12/19 08:19:10;;;;;;;24.80;11.27;;;-2.00;99.90;;;;;;5042182;28;20036;-39
2022/12/19 08:21:36;;;;;;;26.98;11.68;;;-1.90;99.90;;;;;;5046938;28;20033;-38
2022/12/19 08:24:01;;;;;;;24.35;13.05;;;-1.90;99.90;;;;;;5045753;28;20102;-35
2022/12/19 08:26:27;;;;;;;22.73;10.98;;;-1.80;99.90;;;;;;5041531;28;20028;-36
2022/12/19 08:28:54;;;;;;;29.73;12.85;;;-1.80;99.90;;;;;;5046171;28;20395;-39
2022/12/19 08:31:23;;;;;;;34.20;13.73;;;-1.80;99.90;;;;;;5044218;28;20103;-38
2022/12/19 08:33:53;;;;;;;31.17;14.35;;;-1.90;99.90;;;;;;5045288;28;20170;-41
2022/12/19 08:36:19;;;;;;;21.08;10.05;;;-1.90;99.90;;;;;;5043377;28;20037;-34
2022/12/19 08:38:47;;;;;;;21.42;10.50;;;-1.90;99.90;;;;;;5042872;28;20025;-39
2022/12/19 08:41:14;;;;;;;27.08;12.95;;;-1.80;99.90;;;;;;5039187;28;20029;-38
2022/12/19 08:43:40;;;;;;;31.58;14.27;;;-1.80;99.90;;;;;;5042405;28;20028;-42
2022/12/19 08:46:05;;;;;;;36.42;16.02;;;-1.80;99.90;;;;;;5039767;28;20029;-41
2022/12/19 08:48:32;;;;;;;36.50;16.17;;;-1.80;99.90;;;;;;5044151;28;20264;-42
2022/12/19 08:51:02;;;;;;;41.25;15.05;;;-1.80;99.90;;;;;;5038224;28;20048;-41
2022/12/19 08:53:30;;;;;;;34.88;15.57;;;-1.80;99.90;;;;;;5040422;28;20039;-37
2022/12/19 08:55:57;;;;;;;38.95;16.58;;;-1.80;99.90;;;;;;5039860;28;20021;-41
2022/12/19 08:58:24;;;;;;;40.05;17.15;;;-1.80;99.90;;;;;;5036329;28;20050;-39
2022/12/19 09:00:51;;;;;;;42.72;16.70;;;-1.80;99.90;;;;;;5040485;28;20032;-36
2022/12/19 09:03:17;;;;;;;39.05;16.48;;;-1.70;99.90;;;;;;5042744;28;20461;-37
2022/12/19 09:05:42;;;;;;;36.38;15.70;;;-1.70;99.90;;;;;;5044620;28;20112;-40
2022/12/19 09:08:08;;;;;;;39.10;15.52;;;-1.70;99.90;;;;;;5041368;28;20053;-42
2022/12/19 09:10:37;;;;;;;37.38;16.13;;;-1.60;99.90;;;;;;5039429;28;20513;-40
2022/12/19 09:13:04;;;;;;;38.08;16.77;;;-1.60;99.90;;;;;;5042358;28;20039;-39
2022/12/19 09:15:30;;;;;;;32.92;16.23;;;-1.60;99.90;;;;;;5037811;28;20032;-41
2022/12/19 09:17:55;;;;;;;36.65;15.88;;;-1.60;99.90;;;;;;5038491;28;20029;-41
2022/12/19 09:20:21;;;;;;;39.88;17.60;;;-1.60;99.90;;;;;;5039708;28;20113;-38
2022/12/19 09:22:47;;;;;;;43.95;16.88;;;-1.50;99.90;;;;;;5044178;28;20139;-40
2022/12/19 09:25:13;;;;;;;45.88;17.13;;;-1.50;99.90;;;;;;5044096;28;20033;-39
2022/12/19 09:27:39;;;;;;;43.15;18.08;;;-1.40;99.90;;;;;;5040692;28;20061;-40
2022/12/19 09:30:05;;;;;;;40.08;17.45;;;-1.40;99.90;;;;;;5037526;28;20120;-38
2022/12/19 09:32:31;;;;;;;38.58;17.52;;;-1.40;99.90;;;;;;5035757;28;20029;-41
2022/12/19 09:34:56;;;;;;;37.65;15.35;;;-1.40;99.90;;;;;;5043068;28;20033;-40
2022/12/19 09:37:22;;;;;;;42.50;17.95;;;-1.30;99.90;;;;;;5038084;28;20393;-42
2022/12/19 09:39:47;;;;;;;38.95;16.25;;;-1.30;99.90;;;;;;5039982;28;20033;-39
2022/12/19 09:42:35;;;;;;;31.65;16.23;;;-1.20;99.90;;;;;;5037889;28;20037;-40
2022/12/19 09:46:02;;;;;;;36.55;16.55;;;-1.20;99.90;;;;;;5042688;28;20039;-42
2022/12/19 09:48:27;;;;;;;32.80;16.98;;;-1.20;99.90;;;;;;5006299;28;20137;-40
2022/12/19 09:50:53;;;;;;;41.65;16.13;;;-1.10;99.90;;;;;;5044862;28;20569;-40
2022/12/19 09:53:44;;;;;;;42.75;17.02;;;-1.10;99.90;;;;;;5043388;28;20458;-40
2022/12/19 09:56:14;;;;;;;35.58;15.63;;;-1.00;99.90;;;;;;5039233;28;20389;-40
2022/12/19 09:58:45;;;;;;;30.98;14.68;;;-0.90;99.90;;;;;;5037430;28;20112;-35
2022/12/19 10:01:25;;;;;;;34.70;15.30;;;-0.90;99.90;;;;;;5042370;28;20037;-42
2022/12/19 10:04:00;;;;;;;23.73;13.15;;;-0.90;99.90;;;;;;5042730;28;20044;-40
2022/12/19 10:06:25;;;;;;;37.83;17.73;;;-0.80;99.90;;;;;;5043565;28;20033;-41
2022/12/19 10:08:51;;;;;;;30.15;14.45;;;-0.70;99.90;;;;;;5041641;28;20032;-35
2022/12/19 10:11:17;;;;;;;39.55;16.88;;;-0.70;99.90;;;;;;5047381;28;20063;-38
2022/12/19 10:14:03;;;;;;;36.35;16.60;;;-0.60;99.90;;;;;;5043957;28;20106;-41
2022/12/19 10:16:54;;;;;;;40.83;18.02;;;-0.60;99.90;;;;;;5046151;28;20063;-39
2022/12/19 10:20:00;;;;;;;35.75;14.30;;;-0.60;99.90;;;;;;5039614;28;20033;-39
2022/12/19 10:22:43;;;;;;;32.58;14.43;;;-0.60;99.90;;;;;;5021882;28;20116;-42
2022/12/19 10:25:25;;;;;;;32.33;13.77;;;-0.60;99.90;;;;;;5042836;28;20032;-40
2022/12/19 10:28:02;;;;;;;27.80;14.57;;;-0.60;99.90;;;;;;5030235;28;20140;-41
2022/12/19 10:30:34;;;;;;;38.13;16.30;;;-0.60;99.90;;;;;;5041219;28;20331;-42
2022/12/19 10:33:42;;;;;;;32.60;13.50;;;-0.60;99.90;;;;;;5041789;28;20032;-38
2022/12/19 10:36:10;;;;;;;30.13;15.15;;;-0.60;99.90;;;;;;5034682;28;20029;-42
2022/12/19 10:39:01;;;;;;;34.47;15.67;;;-0.60;99.90;;;;;;5044488;28;20028;-42
2022/12/19 10:41:30;;;;;;;31.20;15.50;;;-0.50;99.90;;;;;;5045048;28;21072;-41
2022/12/19 10:44:05;;;;;;;40.33;17.23;;;-0.60;99.90;;;;;;5039290;28;20016;-42
2022/12/19 10:46:41;;;;;;;34.63;14.85;;;-0.50;99.90;;;;;;5040419;28;20127;-38
2022/12/19 10:49:17;;;;;;;32.58;15.68;;;-0.50;99.90;;;;;;5043561;28;20068;-41
2022/12/19 10:51:55;;;;;;;29.67;12.68;;;-0.50;99.90;;;;;;5046637;28;20035;-39
2022/12/19 10:54:42;;;;;;;29.58;16.08;;;-0.50;99.90;;;;;;5040050;28;20025;-41
2022/12/19 10:57:25;;;;;;;32.00;16.38;;;-0.40;99.90;;;;;;5044014;28;20082;-42
2022/12/19 11:00:16;;;;;;;34.95;15.25;;;-0.40;99.90;;;;;;5041632;28;20025;-42
2022/12/19 11:02:49;;;;;;;39.05;16.13;;;-0.40;99.90;;;;;;5036014;28;20022;-40
2022/12/19 11:05:28;;;;;;;42.97;17.65;;;-0.30;99.90;;;;;;5045904;28;20104;-39
2022/12/19 11:08:06;;;;;;;36.40;19.13;;;-0.30;99.90;;;;;;5036249;28;20457;-39
2022/12/19 11:10:44;;;;;;;41.10;17.48;;;-0.20;99.90;;;;;;5033526;28;20040;-38
2022/12/19 11:13:19;;;;;;;38.20;17.92;;;-0.20;99.90;;;;;;5041031;28;20559;-41
2022/12/19 11:15:58;;;;;;;38.95;17.48;;;-0.20;99.90;;;;;;5036736;28;20408;-39
2022/12/19 11:18:37;;;;;;;39.15;18.52;;;-0.10;99.90;;;;;;5041764;28;20040;-40
2022/12/19 11:21:05;;;;;;;;;;;0.00;99.90;;;;;;5043664;28;21042;-41
2022/12/19 11:23:32;;;;;;;35.10;15.57;;;0.00;99.90;;;;;;5042235;28;20372;-37
2022/12/19 11:26:00;;;;;;;34.53;16.25;;;0.00;99.90;;;;;;5044917;28;20021;-41
2022/12/19 11:28:35;;;;;;;40.42;17.65;;;0.10;99.90;;;;;;5037473;28;20045;-41
2022/12/19 11:31:09;;;;;;;31.02;15.70;;;0.10;99.90;;;;;;5039752;28;20033;-41
2022/12/19 11:33:35;;;;;;;39.55;17.15;;;0.10;99.90;;;;;;5042924;28;20083;-36
2022/12/19 11:36:03;;;;;;;37.92;18.20;;;0.20;99.90;;;;;;5039517;28;20025;-36
2022/12/19 11:38:38;;;;;;;45.03;16.90;;;0.20;99.90;;;;;;5036748;28;20110;-42
2022/12/19 11:41:16;;;;;;;44.15;19.65;;;0.20;99.90;;;;;;5042571;28;20028;-40
2022/12/19 11:44:06;;;;;;;39.22;17.95;;;0.30;99.90;;;;;;5040980;28;20025;-42
2022/12/19 11:46:43;;;;;;;35.10;18.15;;;0.30;99.90;;;;;;5035720;28;20519;-41
2022/12/19 11:49:32;;;;;;;39.33;18.88;;;0.40;99.90;;;;;;5040911;28;20359;-36
2022/12/19 11:52:20;;;;;;;39.33;19.00;;;0.40;99.90;;;;;;5040539;28;20033;-39
2022/12/19 11:54:57;;;;;;;50.35;20.83;;;0.40;99.90;;;;;;5043148;28;20071;-41
2022/12/19 11:57:23;;;;;;;43.95;19.48;;;0.30;99.90;;;;;;5046674;28;20570;-39
2022/12/19 11:59:52;;;;;;;36.47;17.73;;;0.30;99.90;;;;;;5045385;28;20025;-38
2022/12/19 12:02:42;;;;;;;45.17;20.60;;;0.30;99.90;;;;;;5038212;28;20044;-38
2022/12/19 12:05:45;;;;;;;48.97;20.92;;;0.30;99.90;;;;;;5046107;28;20032;-42
2022/12/19 12:08:13;;;;;;;49.20;22.55;;;0.30;99.90;;;;;;5045534;28;20485;-40
2022/12/19 12:10:51;;;;;;;48.13;20.48;;;0.30;99.90;;;;;;5045684;28;20138;-42
2022/12/19 12:13:41;;;;;;;45.65;17.60;;;0.30;99.90;;;;;;5046920;28;20044;-41
2022/12/19 12:16:12;;;;;;;44.83;19.75;;;0.30;99.90;;;;;;5043244;28;20700;-41
2022/12/19 12:18:54;;;;;;;46.42;21.90;;;0.30;99.90;;;;;;5046282;28;20029;-42
2022/12/19 12:21:26;;;;;;;45.45;19.88;;;0.30;99.90;;;;;;5046011;28;20017;-38
2022/12/19 12:23:57;;;;;;;36.58;20.25;;;0.30;99.90;;;;;;5046633;28;20513;-42
2022/12/19 12:26:34;;;;;;;39.28;19.40;;;0.30;99.90;;;;;;5044151;28;20028;-41
2022/12/19 12:29:20;;;;;;;35.67;17.33;;;0.40;99.90;;;;;;5041923;28;20058;-42
2022/12/19 12:32:04;;;;;;;39.10;19.00;;;0.40;99.90;;;;;;5044994;28;20033;-39
2022/12/19 12:34:39;;;;;;;41.08;19.63;;;0.40;99.90;;;;;;5047495;28;20478;-40
2022/12/19 12:37:29;;;;;;;36.85;17.92;;;0.50;99.90;;;;;;5043585;28;20567;-41
2022/12/19 12:40:38;;;;;;;34.65;17.83;;;0.50;99.90;;;;;;5039937;28;20021;-42
2022/12/19 12:43:37;;;;;;;37.08;18.58;;;0.60;99.90;;;;;;5026925;28;20037;-38
2022/12/19 12:46:04;;;;;;;39.38;19.00;;;0.60;99.90;;;;;;5044543;28;20107;-40
2022/12/19 12:48:36;;;;;;;31.10;16.63;;;0.60;99.90;;;;;;5047352;28;20034;-42
2022/12/19 12:51:03;;;;;;;30.15;16.20;;;0.60;99.90;;;;;;5042856;28;20116;-41
2022/12/19 12:53:34;;;;;;;36.65;18.02;;;0.70;99.90;;;;;;5044216;28;20041;-42
2022/12/19 12:56:02;;;;;;;35.05;17.75;;;0.70;99.90;;;;;;5044264;28;20034;-39
2022/12/19 12:58:46;;;;;;;35.08;18.35;;;0.70;99.90;;;;;;5043046;28;20029;-39